Rock Island, TN

10:02 AM CST on February 06, 2016 (GMT -0600)
Faulkner Springs | | Change Station
CLOSE
Current Station
Personal Weather Station
Location: McMinnville, TN
Elevation: 928 ft
Nearby Weather Stations

Elev 928 ft 35.72 °N, 85.75 °W | Updated 17 seconds ago

Clear
Clear
52.5 °F
Feels Like 52.5 °F
N
1.1
Wind Variable Wind from SSE

Today
High -- | Low -- °F
--% Chance of Precip.
Yesterday
High -- | Low -- °F
Precip. -- in
Pressure 30.41 in
Visibility 10.0 miles
Clouds Clear
Dew Point 24 °F
Humidity 33%
Rainfall 0.00 in
Snow Depth Not available.
6:38 AM 5:14 PM
Waning Crescent, 5% visible
METAR KCSV 061453Z AUTO 14003KT 10SM CLR 03/M07 A3037 RMK AO2 SLP298 T00331072 51010
Pressure 30.41 in
Visibility 10.0 miles
Clouds Clear
Dew Point 24 °F
Humidity 33%
Rainfall 0.00 in
Snow Depth Not available.
6:38 AM 5:14 PM
Waning Crescent, 5% visible
METAR KCSV 061453Z AUTO 14003KT 10SM CLR 03/M07 A3037 RMK AO2 SLP298 T00331072 51010

10-Day Weather Forecast

Almanac

Astronomy

Feb. 06, 2016 Rise Set
Actual Time
Civil Twilight
Nautical Twilight
Astronomical Twilight
Moon
Length of Visible Light
Length of Day
Tomorrow will be .
, % of the Moon is Illuminated

Today's Extremes

State Highs State Lows

Community

WunderPhotos

Upload Photos

1,890,997 photos uploaded!

WunderBlog® & News

Nearby

Air Quality

  Air Quality AQ Index Pollutant
Not available.

Snow Depth

Station Depth Elevation

Earthquake Activity

City Distance Mag. Time & Date
Minimum magnitude displayed is 2.5.

Coastal Water Temperatures

Place Temperature

Stations

Nearby Weather Stations

Station Location Temp. Windchill Dew Point Humidity Wind Precip. Elev Updated Type
                   

Watches & Warnings

There are currently no watches in effect.